Airfield :
LOGIN :

Register | Disclaimer

   EN    FR    IT 

 










Legend :    VFR   Marginal VFR   IFR   Intensive IFR   Very Intensive IFR
Visi :
Ceiling :
>= 8 km
>= 3000ft
5 to 8 km
1000 to 3000 ft
1500m to 5 km
500 to 1000 ft
800 to 1500m
200 to 500 ft
< 800m
< 200 ft
Symbols :   Thunderstorms  Fog  Heavy snow  Heavy precipitations  Wind > 20 kt
SIGMETs :     Misc.  Thunderstorms  Icing  Turbulence  Mountain Waves  Volcanic Ashes






- Airport Elevation : 333 ft


LIPL - Ghedi Brescia (Mil)

CURRENT METAR :
  • 270755Z 15003KT 8000 BKN040 11/08 Q1006 RMK BKN VIS MIN 8000 WIND THR31 21003KT WIND THR13 26002KT BLU

EXPIRED METARs :
  • 270655Z 13002KT 6000 BKN040 10/08 Q1005 RMK BKN VIS MIN 6000 WIND THR31 11002KT WIND THR13 12001KT WHT
  • 270555Z 17002KT 5000 -RA BR SCT012 BKN025 11/09 Q1005 RMK OVC VIS MIN 5000 WIND THR31 21004KT WIND THR13 20002KT WHT

TAF TAF LIPL
Valid from the 27 at 06:00 until the 27 at 15:00 UTC


270500Z 2706/2715 20006KT 6000 FEW020 BKN030
TEMPO 2706/2708 3000 RA BR BKN015



MET'MAP, your aeronautical weather chart ! - Copyright ORBIFLY December 2007 - Disclaimer

ORBIFLY MET'MAP TEAM :

Programming & Development : Alexandra Zaïnal
Concept & original design : Baudouin d'Aumeries
Assistance for programming : Marc-Olivier Méhu
Technical & hardware support : Manuel Goepfert

Contact : metmap@orbifly.com




SOURCES & CREDITS :

   NOAA